sensor_id;sensor_type;location;lat;lon;timestamp;pressure;altitude;pressure_sealevel;temperature
45034;BMP280;30771;47.988;-4.186;2022-12-17T00:09:10;100477.94;;;1.43
45034;BMP280;30771;47.988;-4.186;2022-12-17T00:11:35;100485.88;;;1.42
45034;BMP280;30771;47.988;-4.186;2022-12-17T00:14:00;100483.41;;;1.40
45034;BMP280;30771;47.988;-4.186;2022-12-17T00:16:25;100465.38;;;1.38
45034;BMP280;30771;47.988;-4.186;2022-12-17T00:18:51;100469.91;;;1.36
45034;BMP280;30771;47.988;-4.186;2022-12-17T00:21:16;100456.38;;;1.33
45034;BMP280;30771;47.988;-4.186;2022-12-17T00:23:41;100450.69;;;1.29
45034;BMP280;30771;47.988;-4.186;2022-12-17T00:26:07;100451.09;;;1.25
45034;BMP280;30771;47.988;-4.186;2022-12-17T00:28:32;100443.41;;;1.23
45034;BMP280;30771;47.988;-4.186;2022-12-17T00:30:57;100442.88;;;1.20
45034;BMP280;30771;47.988;-4.186;2022-12-17T00:33:22;100450.78;;;1.18
45034;BMP280;30771;47.988;-4.186;2022-12-17T00:35:53;100439.63;;;1.18
45034;BMP280;30771;47.988;-4.186;2022-12-17T00:38:18;100445.88;;;1.15
45034;BMP280;30771;47.988;-4.186;2022-12-17T00:40:48;100438.09;;;1.15
45034;BMP280;30771;47.988;-4.186;2022-12-17T00:43:13;100439.88;;;1.15
45034;BMP280;30771;47.988;-4.186;2022-12-17T00:45:39;100436.31;;;1.16
45034;BMP280;30771;47.988;-4.186;2022-12-17T00:48:04;100439.03;;;1.14
45034;BMP280;30771;47.988;-4.186;2022-12-17T00:50:29;100431.41;;;1.13
45034;BMP280;30771;47.988;-4.186;2022-12-17T00:52:54;100433.19;;;1.12
45034;BMP280;30771;47.988;-4.186;2022-12-17T00:55:19;100429.75;;;1.12
45034;BMP280;30771;47.988;-4.186;2022-12-17T00:57:44;100429.75;;;1.12
45034;BMP280;30771;47.988;-4.186;2022-12-17T01:00:10;100420.34;;;1.11
45034;BMP280;30771;47.988;-4.186;2022-12-17T01:02:35;100424.84;;;1.09
45034;BMP280;30771;47.988;-4.186;2022-12-17T01:05:00;100424.16;;;1.07
45034;BMP280;30771;47.988;-4.186;2022-12-17T01:07:26;100422.66;;;1.04
45034;BMP280;30771;47.988;-4.186;2022-12-17T01:09:51;100430.56;;;1.03
45034;BMP280;30771;47.988;-4.186;2022-12-17T01:12:16;100415.13;;;1.01
45034;BMP280;30771;47.988;-4.186;2022-12-17T01:14:41;100416.09;;;1.00
45034;BMP280;30771;47.988;-4.186;2022-12-17T01:17:06;100415.13;;;1.01
45034;BMP280;30771;47.988;-4.186;2022-12-17T01:19:31;100415.13;;;1.01
45034;BMP280;30771;47.988;-4.186;2022-12-17T01:21:56;100416.91;;;1.01
45034;BMP280;30771;47.988;-4.186;2022-12-17T01:24:22;100412.84;;;0.98
45034;BMP280;30771;47.988;-4.186;2022-12-17T01:26:47;100415.53;;;0.97
45034;BMP280;30771;47.988;-4.186;2022-12-17T01:29:12;100405.44;;;0.94
45034;BMP280;30771;47.988;-4.186;2022-12-17T01:31:37;100405.56;;;0.92
45034;BMP280;30771;47.988;-4.186;2022-12-17T01:34:02;100404.91;;;0.90
45034;BMP280;30771;47.988;-4.186;2022-12-17T01:36:27;100392.19;;;0.87
45034;BMP280;30771;47.988;-4.186;2022-12-17T01:38:53;100399.41;;;0.84
45034;BMP280;30771;47.988;-4.186;2022-12-17T01:41:18;100394.34;;;0.82
45034;BMP280;30771;47.988;-4.186;2022-12-17T01:43:43;100402.97;;;0.83
45034;BMP280;30771;47.988;-4.186;2022-12-17T01:46:08;100395.44;;;0.80
45034;BMP280;30771;47.988;-4.186;2022-12-17T01:48:37;100386.16;;;0.77
45034;BMP280;30771;47.988;-4.186;2022-12-17T01:51:03;100386.31;;;0.76
45034;BMP280;30771;47.988;-4.186;2022-12-17T01:53:50;100375.25;;;0.74
45034;BMP280;30771;47.988;-4.186;2022-12-17T01:56:14;100374.56;;;0.72
45034;BMP280;30771;47.988;-4.186;2022-12-17T01:58:40;100366.09;;;0.69
45034;BMP280;30771;47.988;-4.186;2022-12-17T02:01:05;100366.09;;;0.69
45034;BMP280;30771;47.988;-4.186;2022-12-17T02:03:31;100368.81;;;0.68
45034;BMP280;30771;47.988;-4.186;2022-12-17T02:08:41;100369.09;;;0.65
45034;BMP280;30771;47.988;-4.186;2022-12-17T02:11:22;100369.22;;;0.63
45034;BMP280;30771;47.988;-4.186;2022-12-17T02:14:36;100374.53;;;0.62
45034;BMP280;30771;47.988;-4.186;2022-12-17T02:16:37;100375.59;;;0.59
45034;BMP280;30771;47.988;-4.186;2022-12-17T02:19:16;100373.16;;;0.58
45034;BMP280;30771;47.988;-4.186;2022-12-17T02:21:49;100377.78;;;0.54
45034;BMP280;30771;47.988;-4.186;2022-12-17T02:26:55;100384.84;;;0.52
45034;BMP280;30771;47.988;-4.186;2022-12-17T02:29:24;100379.81;;;0.51
45034;BMP280;30771;47.988;-4.186;2022-12-17T02:31:51;100386.91;;;0.49
45034;BMP280;30771;47.988;-4.186;2022-12-17T02:34:16;100390.44;;;0.48
45034;BMP280;30771;47.988;-4.186;2022-12-17T02:36:42;100387.16;;;0.46
45034;BMP280;30771;47.988;-4.186;2022-12-17T02:39:07;100383.75;;;0.45
45034;BMP280;30771;47.988;-4.186;2022-12-17T02:41:37;100381.00;;;0.47
45034;BMP280;30771;47.988;-4.186;2022-12-17T02:44:04;100381.00;;;0.47
45034;BMP280;30771;47.988;-4.186;2022-12-17T02:46:30;100377.75;;;0.45
45034;BMP280;30771;47.988;-4.186;2022-12-17T02:48:55;100371.06;;;0.42
45034;BMP280;30771;47.988;-4.186;2022-12-17T02:51:20;100369.53;;;0.40
45034;BMP280;30771;47.988;-4.186;2022-12-17T02:53:49;100369.69;;;0.38
45034;BMP280;30771;47.988;-4.186;2022-12-17T02:56:14;100364.75;;;0.35
45034;BMP280;30771;47.988;-4.186;2022-12-17T02:58:39;100368.44;;;0.33
45034;BMP280;30771;47.988;-4.186;2022-12-17T03:01:04;100360.00;;;0.31
45034;BMP280;30771;47.988;-4.186;2022-12-17T03:03:30;100364.50;;;0.29
45034;BMP280;30771;47.988;-4.186;2022-12-17T03:05:55;100364.75;;;0.26
45034;BMP280;30771;47.988;-4.186;2022-12-17T03:08:20;100368.28;;;0.25
45034;BMP280;30771;47.988;-4.186;2022-12-17T03:10:45;100358.06;;;0.23
45034;BMP280;30771;47.988;-4.186;2022-12-17T03:13:20;100358.22;;;0.22
45034;BMP280;30771;47.988;-4.186;2022-12-17T03:15:45;100359.16;;;0.21
45034;BMP280;30771;47.988;-4.186;2022-12-17T03:18:10;100359.97;;;0.21
45034;BMP280;30771;47.988;-4.186;2022-12-17T03:20:35;100365.16;;;0.21
45034;BMP280;30771;47.988;-4.186;2022-12-17T03:23:05;100361.06;;;0.19
45034;BMP280;30771;47.988;-4.186;2022-12-17T03:25:30;100362.94;;;0.17
45034;BMP280;30771;47.988;-4.186;2022-12-17T03:27:55;100372.63;;;0.15
45034;BMP280;30771;47.988;-4.186;2022-12-17T03:30:21;100378.88;;;0.12
45034;BMP280;30771;47.988;-4.186;2022-12-17T03:32:46;100372.19;;;0.10
45034;BMP280;30771;47.988;-4.186;2022-12-17T03:35:11;100355.94;;;0.08
45034;BMP280;30771;47.988;-4.186;2022-12-17T03:37:36;100356.09;;;0.06
45034;BMP280;30771;47.988;-4.186;2022-12-17T03:40:01;100354.44;;;0.05
45034;BMP280;30771;47.988;-4.186;2022-12-17T03:42:27;100346.94;;;0.02
45034;BMP280;30771;47.988;-4.186;2022-12-17T03:44:52;100351.44;;;0.00
45034;BMP280;30771;47.988;-4.186;2022-12-17T03:47:17;100351.69;;;-0.03
45034;BMP280;30771;47.988;-4.186;2022-12-17T03:49:42;100344.84;;;-0.04
45034;BMP280;30771;47.988;-4.186;2022-12-17T03:52:07;100337.22;;;-0.06
45034;BMP280;30771;47.988;-4.186;2022-12-17T03:54:33;100339.13;;;-0.08
45034;BMP280;30771;47.988;-4.186;2022-12-17T03:56:58;100344.31;;;-0.08
45034;BMP280;30771;47.988;-4.186;2022-12-17T03:59:23;100346.06;;;-0.08
45034;BMP280;30771;47.988;-4.186;2022-12-17T04:01:48;100347.84;;;-0.09
45034;BMP280;30771;47.988;-4.186;2022-12-17T04:04:13;100347.84;;;-0.09
45034;BMP280;30771;47.988;-4.186;2022-12-17T04:06:38;100343.59;;;-0.10
45034;BMP280;30771;47.988;-4.186;2022-12-17T04:09:04;100338.41;;;-0.10
45034;BMP280;30771;47.988;-4.186;2022-12-17T04:11:29;100345.38;;;-0.10
45034;BMP280;30771;47.988;-4.186;2022-12-17T04:13:54;100334.22;;;-0.11
45034;BMP280;30771;47.988;-4.186;2022-12-17T04:16:19;100332.56;;;-0.12
45034;BMP280;30771;47.988;-4.186;2022-12-17T04:18:44;100336.13;;;-0.13
45034;BMP280;30771;47.988;-4.186;2022-12-17T04:21:09;100332.69;;;-0.13
45034;BMP280;30771;47.988;-4.186;2022-12-17T04:23:35;100339.63;;;-0.14
45034;BMP280;30771;47.988;-4.186;2022-12-17T04:26:00;100337.97;;;-0.15
45034;BMP280;30771;47.988;-4.186;2022-12-17T04:28:25;100326.84;;;-0.15
45034;BMP280;30771;47.988;-4.186;2022-12-17T04:30:50;100337.06;;;-0.14
45034;BMP280;30771;47.988;-4.186;2022-12-17T04:33:15;100335.28;;;-0.13
45034;BMP280;30771;47.988;-4.186;2022-12-17T04:35:40;100333.38;;;-0.11
45034;BMP280;30771;47.988;-4.186;2022-12-17T04:38:06;100329.97;;;-0.12
45034;BMP280;30771;47.988;-4.186;2022-12-17T04:40:31;100327.28;;;-0.10
45034;BMP280;30771;47.988;-4.186;2022-12-17T04:42:56;100327.38;;;-0.12
45034;BMP280;30771;47.988;-4.186;2022-12-17T04:45:21;100327.53;;;-0.13
45034;BMP280;30771;47.988;-4.186;2022-12-17T04:47:46;100328.47;;;-0.14
45034;BMP280;30771;47.988;-4.186;2022-12-17T04:50:11;100326.69;;;-0.14
45034;BMP280;30771;47.988;-4.186;2022-12-17T04:52:36;100317.28;;;-0.15
45034;BMP280;30771;47.988;-4.186;2022-12-17T04:55:02;100307.75;;;-0.14
45034;BMP280;30771;47.988;-4.186;2022-12-17T04:57:27;100304.34;;;-0.15
45034;BMP280;30771;47.988;-4.186;2022-12-17T04:59:52;100306.13;;;-0.15
45034;BMP280;30771;47.988;-4.186;2022-12-17T05:02:17;100315.66;;;-0.16
45034;BMP280;30771;47.988;-4.186;2022-12-17T05:04:42;100317.28;;;-0.15
45034;BMP280;30771;47.988;-4.186;2022-12-17T05:07:07;100324.34;;;-0.17
45034;BMP280;30771;47.988;-4.186;2022-12-17T05:09:33;100320.00;;;-0.16
45034;BMP280;30771;47.988;-4.186;2022-12-17T05:11:58;100319.88;;;-0.15
45034;BMP280;30771;47.988;-4.186;2022-12-17T07:00:28;100439.25;;;-0.51
45034;BMP280;30771;47.988;-4.186;2022-12-17T07:02:54;100433.25;;;-0.51
45034;BMP280;30771;47.988;-4.186;2022-12-17T07:05:19;100421.41;;;-0.54
45034;BMP280;30771;47.988;-4.186;2022-12-17T07:07:44;100431.88;;;-0.55
45034;BMP280;30771;47.988;-4.186;2022-12-17T07:10:09;100429.44;;;-0.57
45034;BMP280;30771;47.988;-4.186;2022-12-17T07:12:34;100429.53;;;-0.58
45034;BMP280;30771;47.988;-4.186;2022-12-17T07:14:59;100437.41;;;-0.60
45034;BMP280;30771;47.988;-4.186;2022-12-17T07:17:25;100433.19;;;-0.61
45034;BMP280;30771;47.988;-4.186;2022-12-17T07:19:50;100417.56;;;-0.59
45034;BMP280;30771;47.988;-4.186;2022-12-17T07:22:15;100425.41;;;-0.61
45034;BMP280;30771;47.988;-4.186;2022-12-17T07:24:40;100424.34;;;-0.58
45034;BMP280;30771;47.988;-4.186;2022-12-17T07:27:05;100422.47;;;-0.56
45034;BMP280;30771;47.988;-4.186;2022-12-17T07:29:30;100421.66;;;-0.57
45034;BMP280;30771;47.988;-4.186;2022-12-17T07:31:56;100429.28;;;-0.55
45034;BMP280;30771;47.988;-4.186;2022-12-17T07:34:21;100432.81;;;-0.56
45034;BMP280;30771;47.988;-4.186;2022-12-17T07:36:46;100444.81;;;-0.55
45034;BMP280;30771;47.988;-4.186;2022-12-17T07:39:11;100439.63;;;-0.55
45034;BMP280;30771;47.988;-4.186;2022-12-17T07:41:36;100440.47;;;-0.55
45034;BMP280;30771;47.988;-4.186;2022-12-17T07:44:01;100438.69;;;-0.54
45034;BMP280;30771;47.988;-4.186;2022-12-17T07:46:26;100446.31;;;-0.53
45034;BMP280;30771;47.988;-4.186;2022-12-17T07:48:52;100446.19;;;-0.51
45034;BMP280;30771;47.988;-4.186;2022-12-17T07:51:17;100449.50;;;-0.49
45034;BMP280;30771;47.988;-4.186;2022-12-17T07:53:42;100445.13;;;-0.49
45034;BMP280;30771;47.988;-4.186;2022-12-17T07:56:07;100451.00;;;-0.47
45034;BMP280;30771;47.988;-4.186;2022-12-17T07:58:32;100451.81;;;-0.46
45034;BMP280;30771;47.988;-4.186;2022-12-17T08:00:58;100449.13;;;-0.45
45034;BMP280;30771;47.988;-4.186;2022-12-17T08:03:23;100454.06;;;-0.42
45034;BMP280;30771;47.988;-4.186;2022-12-17T08:05:48;100459.91;;;-0.40
45034;BMP280;30771;47.988;-4.186;2022-12-17T08:08:14;100462.50;;;-0.40
45034;BMP280;30771;47.988;-4.186;2022-12-17T08:10:39;100464.13;;;-0.39
45034;BMP280;30771;47.988;-4.186;2022-12-17T08:13:04;100467.41;;;-0.37
45034;BMP280;30771;47.988;-4.186;2022-12-17T08:15:30;100461.31;;;-0.36
45034;BMP280;30771;47.988;-4.186;2022-12-17T08:18:00;100459.41;;;-0.34
45034;BMP280;30771;47.988;-4.186;2022-12-17T08:20:26;100455.88;;;-0.33
45034;BMP280;30771;47.988;-4.186;2022-12-17T08:22:51;100459.06;;;-0.29
45034;BMP280;30771;47.988;-4.186;2022-12-17T08:25:16;100458.81;;;-0.26
45034;BMP280;30771;47.988;-4.186;2022-12-17T08:27:41;100461.31;;;-0.25
45034;BMP280;30771;47.988;-4.186;2022-12-17T08:30:07;100454.94;;;-0.21
45034;BMP280;30771;47.988;-4.186;2022-12-17T08:32:32;100465.81;;;-0.17
45034;BMP280;30771;47.988;-4.186;2022-12-17T08:34:57;100469.81;;;-0.13
45034;BMP280;30771;47.988;-4.186;2022-12-17T08:37:22;100473.09;;;-0.11
45034;BMP280;30771;47.988;-4.186;2022-12-17T08:39:47;100472.03;;;-0.09
45034;BMP280;30771;47.988;-4.186;2022-12-17T08:42:13;100471.09;;;-0.08
45034;BMP280;30771;47.988;-4.186;2022-12-17T08:44:38;100480.38;;;-0.05
45034;BMP280;30771;47.988;-4.186;2022-12-17T08:47:03;100483.66;;;-0.03
45034;BMP280;30771;47.988;-4.186;2022-12-17T08:49:29;100485.28;;;-0.02
45034;BMP280;30771;47.988;-4.186;2022-12-17T08:51:55;100484.34;;;-0.01
45034;BMP280;30771;47.988;-4.186;2022-12-17T08:54:20;100487.50;;;0.03
45034;BMP280;30771;47.988;-4.186;2022-12-17T08:56:45;100490.06;;;0.03
45034;BMP280;30771;47.988;-4.186;2022-12-17T08:59:10;100493.50;;;0.03
45034;BMP280;30771;47.988;-4.186;2022-12-17T09:01:37;100489.16;;;0.04
45034;BMP280;30771;47.988;-4.186;2022-12-17T09:04:02;100492.44;;;0.06
45034;BMP280;30771;47.988;-4.186;2022-12-17T09:06:27;100489.84;;;0.06
45034;BMP280;30771;47.988;-4.186;2022-12-17T09:08:52;100493.13;;;0.08
45034;BMP280;30771;47.988;-4.186;2022-12-17T09:11:18;100500.78;;;0.09
45034;BMP280;30771;47.988;-4.186;2022-12-17T09:13:43;100499.00;;;0.10
45034;BMP280;30771;47.988;-4.186;2022-12-17T09:16:08;100505.13;;;0.09
45034;BMP280;30771;47.988;-4.186;2022-12-17T09:18:33;100503.22;;;0.11
45034;BMP280;30771;47.988;-4.186;2022-12-17T09:20:58;100510.06;;;0.12
45034;BMP280;30771;47.988;-4.186;2022-12-17T09:23:26;100523.69;;;0.14
45034;BMP280;30771;47.988;-4.186;2022-12-17T09:25:55;100525.34;;;0.15
45034;BMP280;30771;47.988;-4.186;2022-12-17T09:28:21;100522.75;;;0.15
45034;BMP280;30771;47.988;-4.186;2022-12-17T09:30:46;100519.19;;;0.16
45034;BMP280;30771;47.988;-4.186;2022-12-17T09:33:15;100525.06;;;0.18
45034;BMP280;30771;47.988;-4.186;2022-12-17T09:35:40;100515.31;;;0.21
45034;BMP280;30771;47.988;-4.186;2022-12-17T09:38:05;100508.25;;;0.33
45034;BMP280;30771;47.988;-4.186;2022-12-17T09:40:30;100511.16;;;0.39
45034;BMP280;30771;47.988;-4.186;2022-12-17T09:42:57;100515.78;;;0.36
45034;BMP280;30771;47.988;-4.186;2022-12-17T09:45:45;100521.88;;;0.35
45034;BMP280;30771;47.988;-4.186;2022-12-17T09:50:41;100516.91;;;0.43
45034;BMP280;30771;47.988;-4.186;2022-12-17T09:53:18;100522.97;;;0.53
45034;BMP280;30771;47.988;-4.186;2022-12-17T09:55:48;100528.06;;;0.64
45034;BMP280;30771;47.988;-4.186;2022-12-17T09:58:24;100530.44;;;0.77
45034;BMP280;30771;47.988;-4.186;2022-12-17T10:00:50;100532.97;;;0.88
45034;BMP280;30771;47.988;-4.186;2022-12-17T10:03:17;100538.88;;;0.99
45034;BMP280;30771;47.988;-4.186;2022-12-17T10:05:43;100529.22;;;1.11
45034;BMP280;30771;47.988;-4.186;2022-12-17T10:08:14;100530.06;;;1.21
45034;BMP280;30771;47.988;-4.186;2022-12-17T10:10:42;100537.88;;;1.30
45034;BMP280;30771;47.988;-4.186;2022-12-17T10:13:25;100548.66;;;1.35
45034;BMP280;30771;47.988;-4.186;2022-12-17T10:15:50;100554.94;;;1.43
45034;BMP280;30771;47.988;-4.186;2022-12-17T10:18:15;100551.84;;;1.49
45034;BMP280;30771;47.988;-4.186;2022-12-17T10:20:57;100556.50;;;1.55
45034;BMP280;30771;47.988;-4.186;2022-12-17T10:23:29;100563.75;;;1.61
45034;BMP280;30771;47.988;-4.186;2022-12-17T10:25:55;100578.78;;;1.67
45034;BMP280;30771;47.988;-4.186;2022-12-17T10:28:21;100589.97;;;1.67
45034;BMP280;30771;47.988;-4.186;2022-12-17T10:30:47;100593.97;;;1.71
45034;BMP280;30771;47.988;-4.186;2022-12-17T10:33:14;100583.84;;;1.78
45034;BMP280;30771;47.988;-4.186;2022-12-17T10:35:42;100594.81;;;1.81
45034;BMP280;30771;47.988;-4.186;2022-12-17T10:40:35;100589.03;;;1.87
45034;BMP280;30771;47.988;-4.186;2022-12-17T10:43:01;100592.19;;;1.91
45034;BMP280;30771;47.988;-4.186;2022-12-17T10:45:33;100585.75;;;1.95
45034;BMP280;30771;47.988;-4.186;2022-12-17T10:47:58;100592.31;;;1.99
45034;BMP280;30771;47.988;-4.186;2022-12-17T10:50:23;100601.59;;;2.01
45034;BMP280;30771;47.988;-4.186;2022-12-17T10:52:48;100593.69;;;2.03
45034;BMP280;30771;47.988;-4.186;2022-12-17T10:55:27;100599.84;;;2.02
45034;BMP280;30771;47.988;-4.186;2022-12-17T10:57:52;100607.63;;;2.02
45034;BMP280;30771;47.988;-4.186;2022-12-17T11:00:35;100602.19;;;2.05
45034;BMP280;30771;47.988;-4.186;2022-12-17T11:03:01;100596.84;;;2.06
45034;BMP280;30771;47.988;-4.186;2022-12-17T11:05:27;100597.41;;;2.10
45034;BMP280;30771;47.988;-4.186;2022-12-17T11:07:54;100598.63;;;2.16
45034;BMP280;30771;47.988;-4.186;2022-12-17T11:10:24;100610.38;;;2.20
45034;BMP280;30771;47.988;-4.186;2022-12-17T11:12:51;100630.06;;;2.22
45034;BMP280;30771;47.988;-4.186;2022-12-17T11:17:43;100644.16;;;2.20
45034;BMP280;30771;47.988;-4.186;2022-12-17T11:20:26;100634.69;;;2.19
45034;BMP280;30771;47.988;-4.186;2022-12-17T11:22:58;100642.38;;;2.20
45034;BMP280;30771;47.988;-4.186;2022-12-17T11:27:56;100653.56;;;2.30
45034;BMP280;30771;47.988;-4.186;2022-12-17T11:30:22;100662.72;;;2.34
45034;BMP280;30771;47.988;-4.186;2022-12-17T11:35:28;100677.06;;;2.29
45034;BMP280;30771;47.988;-4.186;2022-12-17T11:41:03;100690.78;;;2.31
45034;BMP280;30771;47.988;-4.186;2022-12-17T11:43:11;100684.47;;;2.33
45034;BMP280;30771;47.988;-4.186;2022-12-17T11:48:13;100714.00;;;2.42
45034;BMP280;30771;47.988;-4.186;2022-12-17T11:50:43;100723.72;;;2.40
45034;BMP280;30771;47.988;-4.186;2022-12-17T11:53:16;100734.13;;;2.40
45034;BMP280;30771;47.988;-4.186;2022-12-17T11:55:56;100739.44;;;2.38
45034;BMP280;30771;47.988;-4.186;2022-12-17T11:58:35;100742.59;;;2.32
45034;BMP280;30771;47.988;-4.186;2022-12-17T12:16:27;100753.56;;;2.55
45034;BMP280;30771;47.988;-4.186;2022-12-17T12:21:54;100755.88;;;2.67
45034;BMP280;30771;47.988;-4.186;2022-12-17T12:34:45;100749.81;;;3.05
45034;BMP280;30771;47.988;-4.186;2022-12-17T12:37:19;100751.22;;;3.09
45034;BMP280;30771;47.988;-4.186;2022-12-17T12:45:01;100746.63;;;3.30
45034;BMP280;30771;47.988;-4.186;2022-12-17T12:50:22;100733.59;;;3.40
45034;BMP280;30771;47.988;-4.186;2022-12-17T12:52:51;100744.81;;;3.40
45034;BMP280;30771;47.988;-4.186;2022-12-17T12:55:16;100768.66;;;3.45
45034;BMP280;30771;47.988;-4.186;2022-12-17T13:00:19;100770.78;;;3.60
45034;BMP280;30771;47.988;-4.186;2022-12-17T13:02:44;100768.00;;;3.61
45034;BMP280;30771;47.988;-4.186;2022-12-17T13:07:44;100776.47;;;3.73
45034;BMP280;30771;47.988;-4.186;2022-12-17T13:10:16;100763.28;;;3.74
45034;BMP280;30771;47.988;-4.186;2022-12-17T13:12:45;100775.06;;;3.78
45034;BMP280;30771;47.988;-4.186;2022-12-17T13:15:45;100793.16;;;3.80
45034;BMP280;30771;47.988;-4.186;2022-12-17T13:20:55;100780.81;;;3.82
45034;BMP280;30771;47.988;-4.186;2022-12-17T13:28:35;100768.19;;;3.87
45034;BMP280;30771;47.988;-4.186;2022-12-17T13:31:01;100762.03;;;3.88
45034;BMP280;30771;47.988;-4.186;2022-12-17T13:39:09;100761.72;;;3.91
45034;BMP280;30771;47.988;-4.186;2022-12-17T13:41:16;100759.28;;;3.89
45034;BMP280;30771;47.988;-4.186;2022-12-17T13:43:43;100756.94;;;3.86
45034;BMP280;30771;47.988;-4.186;2022-12-17T13:46:22;100757.09;;;3.85
45034;BMP280;30771;47.988;-4.186;2022-12-17T13:49:05;100757.94;;;3.85
45034;BMP280;30771;47.988;-4.186;2022-12-17T13:51:35;100756.44;;;3.83
45034;BMP280;30771;47.988;-4.186;2022-12-17T13:54:02;100764.25;;;3.83
45034;BMP280;30771;47.988;-4.186;2022-12-17T13:56:29;100755.44;;;3.84
45034;BMP280;30771;47.988;-4.186;2022-12-17T13:59:02;100749.41;;;3.83
45034;BMP280;30771;47.988;-4.186;2022-12-17T14:01:27;100745.84;;;3.84
45034;BMP280;30771;47.988;-4.186;2022-12-17T14:04:02;100739.00;;;3.83
45034;BMP280;30771;47.988;-4.186;2022-12-17T14:06:42;100728.19;;;3.78
45034;BMP280;30771;47.988;-4.186;2022-12-17T14:09:18;100736.97;;;3.77
45034;BMP280;30771;47.988;-4.186;2022-12-17T14:11:47;100745.63;;;3.78
45034;BMP280;30771;47.988;-4.186;2022-12-17T14:16:49;100730.50;;;3.81
45034;BMP280;30771;47.988;-4.186;2022-12-17T14:19:15;100742.41;;;3.84
45034;BMP280;30771;47.988;-4.186;2022-12-17T14:21:40;100735.44;;;3.84
45034;BMP280;30771;47.988;-4.186;2022-12-17T14:24:05;100741.31;;;3.86
45034;BMP280;30771;47.988;-4.186;2022-12-17T14:26:31;100746.25;;;3.89
45034;BMP280;30771;47.988;-4.186;2022-12-17T14:28:56;100748.03;;;3.89
45034;BMP280;30771;47.988;-4.186;2022-12-17T14:33:47;100747.56;;;3.93
45034;BMP280;30771;47.988;-4.186;2022-12-17T14:36:23;100741.41;;;3.94
45034;BMP280;30771;47.988;-4.186;2022-12-17T14:39:01;100747.28;;;3.96
45034;BMP280;30771;47.988;-4.186;2022-12-17T14:41:26;100739.47;;;3.96
45034;BMP280;30771;47.988;-4.186;2022-12-17T14:43:59;100741.91;;;3.98
45034;BMP280;30771;47.988;-4.186;2022-12-17T14:46:25;100730.03;;;3.95
45034;BMP280;30771;47.988;-4.186;2022-12-17T14:48:54;100736.19;;;3.94
45034;BMP280;30771;47.988;-4.186;2022-12-17T14:51:26;100743.50;;;3.91
45034;BMP280;30771;47.988;-4.186;2022-12-17T14:53:52;100745.28;;;3.90
45034;BMP280;30771;47.988;-4.186;2022-12-17T14:56:21;100746.25;;;3.89
45034;BMP280;30771;47.988;-4.186;2022-12-17T14:58:46;100750.91;;;3.86
45034;BMP280;30771;47.988;-4.186;2022-12-17T15:01:12;100768.47;;;3.84
45034;BMP280;30771;47.988;-4.186;2022-12-17T15:03:38;100761.75;;;3.81
45034;BMP280;30771;47.988;-4.186;2022-12-17T15:06:08;100766.44;;;3.78
45034;BMP280;30771;47.988;-4.186;2022-12-17T15:08:44;100763.28;;;3.74
45034;BMP280;30771;47.988;-4.186;2022-12-17T15:11:10;100753.03;;;3.73
45034;BMP280;30771;47.988;-4.186;2022-12-17T15:13:36;100749.09;;;3.69
45034;BMP280;30771;47.988;-4.186;2022-12-17T15:16:01;100744.47;;;3.63
45034;BMP280;30771;47.988;-4.186;2022-12-17T15:18:26;100744.72;;;3.60
45034;BMP280;30771;47.988;-4.186;2022-12-17T15:20:52;100738.19;;;3.56
45034;BMP280;30771;47.988;-4.186;2022-12-17T15:23:18;100747.09;;;3.53
45034;BMP280;30771;47.988;-4.186;2022-12-17T15:25:44;100754.06;;;3.53
45034;BMP280;30771;47.988;-4.186;2022-12-17T15:28:10;100740.50;;;3.49
45034;BMP280;30771;47.988;-4.186;2022-12-17T15:30:35;100741.59;;;3.46
45034;BMP280;30771;47.988;-4.186;2022-12-17T15:33:01;100748.94;;;3.43
45034;BMP280;30771;47.988;-4.186;2022-12-17T15:35:26;100755.22;;;3.40
45034;BMP280;30771;47.988;-4.186;2022-12-17T15:37:51;100749.34;;;3.38
45034;BMP280;30771;47.988;-4.186;2022-12-17T15:40:16;100749.63;;;3.35
45034;BMP280;30771;47.988;-4.186;2022-12-17T15:42:41;100745.53;;;3.33
45034;BMP280;30771;47.988;-4.186;2022-12-17T15:45:07;100741.56;;;3.29
45034;BMP280;30771;47.988;-4.186;2022-12-17T15:47:32;100744.56;;;3.24
45034;BMP280;30771;47.988;-4.186;2022-12-17T15:49:57;100745.84;;;3.20
45034;BMP280;30771;47.988;-4.186;2022-12-17T15:52:22;100726.28;;;3.16
45034;BMP280;30771;47.988;-4.186;2022-12-17T15:54:47;100734.50;;;3.12
45034;BMP280;30771;47.988;-4.186;2022-12-17T15:57:13;100731.34;;;3.08
45034;BMP280;30771;47.988;-4.186;2022-12-17T15:59:38;100731.75;;;3.04
45034;BMP280;30771;47.988;-4.186;2022-12-17T16:02:03;100741.50;;;3.02
45034;BMP280;30771;47.988;-4.186;2022-12-17T16:04:28;100742.69;;;2.98
45034;BMP280;30771;47.988;-4.186;2022-12-17T16:06:53;100741.19;;;2.95
45034;BMP280;30771;47.988;-4.186;2022-12-17T16:09:18;100746.69;;;2.92
45034;BMP280;30771;47.988;-4.186;2022-12-17T16:11:44;100744.41;;;2.89
45034;BMP280;30771;47.988;-4.186;2022-12-17T16:14:09;100742.22;;;2.85
45034;BMP280;30771;47.988;-4.186;2022-12-17T16:16:34;100735.50;;;2.82
45034;BMP280;30771;47.988;-4.186;2022-12-17T16:18:59;100733.31;;;2.78
45034;BMP280;30771;47.988;-4.186;2022-12-17T16:21:24;100751.91;;;2.73
45034;BMP280;30771;47.988;-4.186;2022-12-17T16:23:50;100752.19;;;2.70
45034;BMP280;30771;47.988;-4.186;2022-12-17T16:26:15;100748.09;;;2.67
45034;BMP280;30771;47.988;-4.186;2022-12-17T16:28:40;100747.66;;;2.62
45034;BMP280;30771;47.988;-4.186;2022-12-17T16:31:06;100752.34;;;2.59
45034;BMP280;30771;47.988;-4.186;2022-12-17T16:33:32;100763.00;;;2.56
45034;BMP280;30771;47.988;-4.186;2022-12-17T16:35:58;100770.25;;;2.52
45034;BMP280;30771;47.988;-4.186;2022-12-17T16:38:23;100755.75;;;2.50
45034;BMP280;30771;47.988;-4.186;2022-12-17T16:40:48;100755.19;;;2.46
45034;BMP280;30771;47.988;-4.186;2022-12-17T16:43:14;100744.38;;;2.41
45034;BMP280;30771;47.988;-4.186;2022-12-17T16:45:46;100747.38;;;2.37
45034;BMP280;30771;47.988;-4.186;2022-12-17T16:48:12;100742.84;;;2.29
45034;BMP280;30771;47.988;-4.186;2022-12-17T16:50:37;100750.13;;;2.26
45034;BMP280;30771;47.988;-4.186;2022-12-17T16:53:02;100752.31;;;2.21
45034;BMP280;30771;47.988;-4.186;2022-12-17T16:55:27;100756.25;;;2.15
45034;BMP280;30771;47.988;-4.186;2022-12-17T16:57:52;100757.47;;;2.11
45034;BMP280;30771;47.988;-4.186;2022-12-17T17:00:17;100762.91;;;2.08
45034;BMP280;30771;47.988;-4.186;2022-12-17T17:02:43;100774.38;;;2.05
45034;BMP280;30771;47.988;-4.186;2022-12-17T17:05:08;100772.88;;;2.03
45034;BMP280;30771;47.988;-4.186;2022-12-17T17:07:33;100775.72;;;2.00
45034;BMP280;30771;47.988;-4.186;2022-12-17T17:09:58;100774.34;;;1.96